createdAt,value
2022-12-03T00:00:20.791Z,51.50
2022-12-03T00:03:09.716Z,50.60
2022-12-03T00:05:39.692Z,51.40
2022-12-03T00:08:09.877Z,49.40
2022-12-03T00:10:38.129Z,50.50
2022-12-03T00:13:05.923Z,49.60
2022-12-03T00:15:33.727Z,47.10
2022-12-03T00:18:02.054Z,47.70
2022-12-03T00:20:29.956Z,50.10
2022-12-03T00:22:57.910Z,50.60
2022-12-03T00:25:26.137Z,50.50
2022-12-03T00:27:54.422Z,50.70
2022-12-03T00:30:22.315Z,49.50
2022-12-03T00:32:50.309Z,47.50
2022-12-03T00:35:18.455Z,50.50
2022-12-03T00:37:46.590Z,50.30
2022-12-03T00:40:14.502Z,49.50
2022-12-03T00:42:42.879Z,48.60
2022-12-03T00:45:11.217Z,49.80
2022-12-03T00:47:39.124Z,49.80
2022-12-03T00:50:08.284Z,50.70
2022-12-03T00:52:36.080Z,53.40
2022-12-03T00:55:04.584Z,53.50
2022-12-03T00:57:32.700Z,54.60
2022-12-03T01:00:00.554Z,47.80
2022-12-03T01:02:28.445Z,47.10
2022-12-03T01:04:56.983Z,50.30
2022-12-03T01:07:25.245Z,51.40
2022-12-03T01:09:53.134Z,53.70
2022-12-03T01:12:21.355Z,54.40
2022-12-03T01:14:49.409Z,55.60
2022-12-03T01:17:17.425Z,53.80
2022-12-03T01:19:48.423Z,54.40
2022-12-03T01:22:16.615Z,50.70
2022-12-03T01:24:44.573Z,50.80
2022-12-03T01:27:12.791Z,51.70
2022-12-03T01:29:40.785Z,54.40
2022-12-03T01:32:22.217Z,53.00
2022-12-03T01:34:53.867Z,52.10
2022-12-03T01:37:24.895Z,54.10
2022-12-03T01:39:52.971Z,53.00
2022-12-03T01:42:24.778Z,53.80
2022-12-03T01:44:57.043Z,55.40
2022-12-03T01:47:30.937Z,50.60
2022-12-03T01:50:04.172Z,47.60
2022-12-03T01:52:37.669Z,49.70
2022-12-03T01:55:11.959Z,50.40
2022-12-03T01:57:48.886Z,50.40
2022-12-03T02:00:23.862Z,50.80
2022-12-03T02:02:55.493Z,53.00
2022-12-03T02:05:26.632Z,57.20
2022-12-03T02:07:55.602Z,56.80
2022-12-03T02:10:27.384Z,54.60
2022-12-03T02:12:59.985Z,49.20
2022-12-03T02:15:27.919Z,54.30
2022-12-03T02:17:57.778Z,50.00
2022-12-03T02:20:26.248Z,54.50
2022-12-03T02:22:54.021Z,51.60
2022-12-03T02:25:26.159Z,54.80
2022-12-03T02:27:55.530Z,58.50
2022-12-03T02:30:26.032Z,55.30
2022-12-03T02:32:54.732Z,56.50
2022-12-03T02:35:29.232Z,58.60
2022-12-03T02:38:03.274Z,54.30
2022-12-03T02:40:33.562Z,51.40
2022-12-03T02:43:03.400Z,54.30
2022-12-03T02:45:39.732Z,54.80
2022-12-03T02:48:21.076Z,57.40
2022-12-03T02:50:53.665Z,60.20
2022-12-03T02:53:28.738Z,62.60
2022-12-03T02:55:59.179Z,56.30
2022-12-03T02:58:29.813Z,53.20
2022-12-03T03:00:58.982Z,53.80
2022-12-03T03:03:29.199Z,56.60
2022-12-03T03:05:57.855Z,57.50
2022-12-03T03:08:27.034Z,58.10
2022-12-03T03:10:56.613Z,59.00
2022-12-03T03:13:24.747Z,58.50
2022-12-03T03:15:53.454Z,58.10
2022-12-03T03:18:21.445Z,57.30
2022-12-03T03:20:49.537Z,58.10
2022-12-03T03:23:22.421Z,56.20
2022-12-03T03:25:57.073Z,50.50
2022-12-03T03:28:26.019Z,58.40
2022-12-03T03:30:54.179Z,57.60
2022-12-03T03:33:22.311Z,59.40
2022-12-03T03:35:50.408Z,57.30
2022-12-03T03:38:21.040Z,57.90
2022-12-03T03:40:51.320Z,59.60
2022-12-03T03:43:22.139Z,56.60
2022-12-03T03:45:51.653Z,52.50
2022-12-03T03:48:21.283Z,48.20
2022-12-03T03:50:50.950Z,60.00
2022-12-03T03:53:20.641Z,69.30
2022-12-03T03:55:49.388Z,79.90
2022-12-03T03:58:17.502Z,84.10
2022-12-03T04:00:46.755Z,89.10
2022-12-03T04:03:14.938Z,83.20
2022-12-03T04:05:42.799Z,74.20
2022-12-03T04:08:10.817Z,70.60
2022-12-03T04:10:57.091Z,75.50
2022-12-03T04:13:24.930Z,76.70
2022-12-03T04:15:52.891Z,75.60
2022-12-03T04:18:39.546Z,73.70
2022-12-03T04:21:26.139Z,75.30
2022-12-03T04:23:54.143Z,74.60
2022-12-03T04:26:40.654Z,65.70
2022-12-03T04:29:08.709Z,58.70
2022-12-03T04:31:55.519Z,64.50
2022-12-03T04:34:42.091Z,60.50
2022-12-03T04:37:10.355Z,61.60
2022-12-03T04:39:39.028Z,58.20
2022-12-03T04:42:07.315Z,59.80
2022-12-03T04:44:38.285Z,63.00
2022-12-03T04:47:12.489Z,59.50
2022-12-03T04:49:46.464Z,56.90
2022-12-03T04:52:16.596Z,55.50
2022-12-03T04:54:45.306Z,54.90
2022-12-03T04:57:13.764Z,49.90
2022-12-03T04:59:41.701Z,57.30
2022-12-03T05:02:09.768Z,58.60
2022-12-03T05:04:37.792Z,56.20
2022-12-03T05:07:05.717Z,55.80
2022-12-03T05:09:33.610Z,54.70
2022-12-03T05:12:01.600Z,56.10
2022-12-03T05:14:30.198Z,63.90
2022-12-03T05:16:58.210Z,60.70
2022-12-03T05:19:46.376Z,56.30
2022-12-03T05:22:14.675Z,49.70
2022-12-03T05:24:43.214Z,55.00
2022-12-03T05:27:11.225Z,60.20
2022-12-03T05:29:39.122Z,66.00
2022-12-03T05:32:07.016Z,67.50
2022-12-03T05:34:34.928Z,63.90
2022-12-03T05:37:02.930Z,69.70
2022-12-03T05:39:30.781Z,80.20
2022-12-03T05:42:17.174Z,66.30
2022-12-03T05:44:45.063Z,61.80
2022-12-03T05:47:12.987Z,59.50
2022-12-03T05:49:41.069Z,70.40
2022-12-03T05:52:08.960Z,74.00
2022-12-03T05:54:36.989Z,82.00
2022-12-03T05:57:06.220Z,84.80
2022-12-03T05:59:34.454Z,87.00
2022-12-03T06:02:02.916Z,86.20
2022-12-03T06:04:31.328Z,89.50
2022-12-03T06:06:59.130Z,82.30
2022-12-03T06:09:26.998Z,69.30
2022-12-03T06:11:55.133Z,72.30
2022-12-03T06:14:23.152Z,77.10
2022-12-03T06:16:50.956Z,82.10
2022-12-03T06:19:19.061Z,85.50
2022-12-03T06:21:46.905Z,88.70
2022-12-03T06:24:15.044Z,83.20
2022-12-03T06:26:43.316Z,79.40
2022-12-03T06:29:11.291Z,72.70
2022-12-03T06:31:39.220Z,67.20
2022-12-03T06:34:07.865Z,61.90
2022-12-03T06:36:35.844Z,60.60
2022-12-03T06:39:03.919Z,65.80
2022-12-03T06:41:32.706Z,64.40
2022-12-03T06:44:00.686Z,63.00
2022-12-03T06:46:28.655Z,61.10
2022-12-03T06:48:56.611Z,61.10
2022-12-03T06:51:24.465Z,60.80
2022-12-03T06:53:52.411Z,58.00
2022-12-03T06:56:22.489Z,54.00
2022-12-03T06:58:50.878Z,48.30
2022-12-03T07:01:18.881Z,47.40
2022-12-03T07:03:47.579Z,49.80
2022-12-03T07:06:15.499Z,56.60
2022-12-03T07:08:43.348Z,68.90
2022-12-03T07:11:31.441Z,69.30
2022-12-03T07:14:05.007Z,76.80
2022-12-03T07:16:35.987Z,69.00
2022-12-03T07:19:05.905Z,67.00
2022-12-03T07:21:33.927Z,56.80
2022-12-03T07:24:02.694Z,53.80
2022-12-03T07:26:30.642Z,55.30
2022-12-03T07:28:58.906Z,65.90
2022-12-03T07:31:26.956Z,62.10
2022-12-03T07:33:56.054Z,60.60
2022-12-03T07:36:24.006Z,58.70
2022-12-03T07:38:52.301Z,63.10
2022-12-03T07:41:20.170Z,59.40
2022-12-03T07:43:48.035Z,48.70
2022-12-03T07:46:16.418Z,45.90
2022-12-03T07:48:44.255Z,45.80
2022-12-03T07:51:15.154Z,44.70
2022-12-03T07:53:43.919Z,45.50
2022-12-03T07:56:11.878Z,47.60
2022-12-03T07:58:39.796Z,49.20
2022-12-03T08:01:07.930Z,51.60
2022-12-03T08:03:35.978Z,50.00
2022-12-03T08:06:04.224Z,49.00
2022-12-03T08:08:32.288Z,48.80
2022-12-03T08:11:01.970Z,46.50
2022-12-03T08:13:30.715Z,41.10
2022-12-03T08:16:02.438Z,37.20
2022-12-03T08:18:30.320Z,36.70
2022-12-03T08:20:58.345Z,33.10
2022-12-03T08:23:26.410Z,33.10
2022-12-03T08:25:54.268Z,31.60
2022-12-03T08:28:25.690Z,30.40
2022-12-03T08:31:02.452Z,31.50
2022-12-03T08:33:35.269Z,27.50
2022-12-03T08:36:19.327Z,26.00
2022-12-03T08:39:00.606Z,36.60
2022-12-03T08:41:48.651Z,33.50
2022-12-03T08:44:30.261Z,26.40
2022-12-03T08:47:09.669Z,29.20
2022-12-03T08:49:37.762Z,29.40
2022-12-03T08:52:32.686Z,28.30
2022-12-03T08:55:12.988Z,28.80
2022-12-03T08:57:41.398Z,24.70
2022-12-03T09:00:21.444Z,26.20
2022-12-03T09:02:52.555Z,25.80
2022-12-03T09:05:28.167Z,26.60
2022-12-03T09:07:56.359Z,26.20
2022-12-03T09:10:24.504Z,28.20
2022-12-03T09:12:52.667Z,28.40
2022-12-03T09:15:20.826Z,27.50
2022-12-03T09:17:50.943Z,29.00
2022-12-03T09:20:18.842Z,31.20
2022-12-03T09:22:46.773Z,32.70
2022-12-03T09:25:15.029Z,32.10
2022-12-03T09:27:43.043Z,35.80
2022-12-03T09:30:11.438Z,37.40
2022-12-03T09:32:39.365Z,37.90
2022-12-03T09:35:08.436Z,41.30
2022-12-03T09:37:36.662Z,42.00
2022-12-03T09:40:05.794Z,41.70
2022-12-03T09:42:34.627Z,42.70
2022-12-03T09:45:04.579Z,45.20
2022-12-03T09:47:32.668Z,51.10
2022-12-03T09:50:00.574Z,55.40
2022-12-03T09:52:34.049Z,52.10
2022-12-03T09:55:07.935Z,51.10
2022-12-03T09:57:36.024Z,51.50
2022-12-03T10:00:14.815Z,52.80
2022-12-03T10:02:42.959Z,50.70
2022-12-03T10:05:11.420Z,51.60
2022-12-03T10:07:40.470Z,52.20
2022-12-03T10:10:16.626Z,52.40
2022-12-03T10:12:45.049Z,49.90
2022-12-03T10:15:14.876Z,51.40
2022-12-03T10:17:43.058Z,54.30
2022-12-03T10:20:14.506Z,52.00
2022-12-03T10:22:42.494Z,43.90
2022-12-03T10:25:19.311Z,44.20
2022-12-03T10:28:01.172Z,44.80
2022-12-03T10:30:30.364Z,44.60
2022-12-03T10:32:59.136Z,43.10
2022-12-03T10:35:39.644Z,41.30
2022-12-03T10:38:19.695Z,43.30
2022-12-03T10:40:48.443Z,45.40
2022-12-03T10:43:21.480Z,44.60
2022-12-03T10:46:10.837Z,43.60
2022-12-03T10:48:38.840Z,45.70
2022-12-03T10:51:21.467Z,48.90
2022-12-03T10:53:50.719Z,46.60
2022-12-03T10:56:25.293Z,42.90
2022-12-03T10:58:53.595Z,46.50
2022-12-03T11:01:24.044Z,46.60
2022-12-03T11:03:54.669Z,42.90
2022-12-03T11:06:23.575Z,43.30
2022-12-03T11:08:57.803Z,42.80
2022-12-03T11:11:31.686Z,45.10
2022-12-03T11:14:04.492Z,44.50
2022-12-03T11:16:41.621Z,42.90
2022-12-03T11:19:12.375Z,41.00
2022-12-03T11:24:28.710Z,39.60
2022-12-03T11:26:56.555Z,41.10
2022-12-03T11:30:01.040Z,41.00
2022-12-03T11:32:37.949Z,38.10
2022-12-03T11:35:24.125Z,37.80
2022-12-03T11:37:52.852Z,31.40
2022-12-03T11:40:20.774Z,39.10
2022-12-03T11:42:49.582Z,42.50
2022-12-03T11:45:28.870Z,42.80
2022-12-03T11:47:59.835Z,43.20
2022-12-03T11:50:37.626Z,42.60
2022-12-03T11:53:26.250Z,43.50
2022-12-03T11:56:11.127Z,42.90
2022-12-03T11:58:43.077Z,42.10
2022-12-03T12:01:11.940Z,41.00
2022-12-03T12:03:50.102Z,42.60
2022-12-03T12:06:21.182Z,40.70
2022-12-03T12:08:52.428Z,39.20
2022-12-03T12:11:43.856Z,39.70
2022-12-03T12:14:13.485Z,41.00
2022-12-03T12:16:51.830Z,39.70
2022-12-03T12:19:37.018Z,38.60
2022-12-03T12:22:25.085Z,37.60
2022-12-03T12:24:54.057Z,38.50
2022-12-03T12:27:35.842Z,40.20
2022-12-03T12:30:14.967Z,39.30
2022-12-03T12:32:48.925Z,38.10
2022-12-03T12:35:28.770Z,43.90
2022-12-03T12:38:12.623Z,40.60
2022-12-03T12:40:43.127Z,38.40
2022-12-03T12:43:23.580Z,39.40
2022-12-03T12:45:54.923Z,46.50
2022-12-03T12:50:58.615Z,43.40
2022-12-03T12:53:30.868Z,45.10
2022-12-03T12:56:01.390Z,39.60
2022-12-03T12:58:32.402Z,37.60
2022-12-03T13:01:05.886Z,37.20
2022-12-03T13:03:37.389Z,36.90
2022-12-03T13:06:05.708Z,39.20
2022-12-03T13:08:40.778Z,41.10
2022-12-03T13:11:37.160Z,38.70
2022-12-03T13:14:23.106Z,38.20
2022-12-03T13:16:54.748Z,36.20
2022-12-03T13:19:25.968Z,35.40
2022-12-03T13:21:56.163Z,34.90
2022-12-03T13:24:27.028Z,34.20
2022-12-03T13:26:55.312Z,33.40
2022-12-03T13:29:24.346Z,31.40
2022-12-03T13:31:55.955Z,31.80
2022-12-03T13:34:31.164Z,32.10
2022-12-03T13:37:01.332Z,31.30
2022-12-03T13:39:41.380Z,29.80
2022-12-03T13:42:40.525Z,30.30
2022-12-03T13:45:17.600Z,30.30
2022-12-03T13:47:49.068Z,31.30
2022-12-03T13:50:28.998Z,30.30
2022-12-03T13:52:57.609Z,30.20
2022-12-03T13:55:28.016Z,30.00
2022-12-03T13:57:56.513Z,27.80
2022-12-03T14:00:24.569Z,30.40
2022-12-03T14:02:52.451Z,28.90
2022-12-03T14:05:21.820Z,32.10
2022-12-03T14:07:50.015Z,30.40
2022-12-03T14:10:18.464Z,31.80
2022-12-03T14:12:46.370Z,31.70
2022-12-03T14:15:14.255Z,30.40
2022-12-03T14:17:42.822Z,31.80
2022-12-03T14:20:11.412Z,32.60
2022-12-03T14:22:39.329Z,31.70
2022-12-03T14:25:08.247Z,32.10
2022-12-03T14:27:36.333Z,33.30
2022-12-03T14:30:04.968Z,34.10
2022-12-03T14:32:32.967Z,36.40
2022-12-03T14:35:03.957Z,35.90
2022-12-03T14:37:36.098Z,35.80
2022-12-03T14:40:04.675Z,35.60
2022-12-03T14:42:32.552Z,36.50
2022-12-03T14:45:00.823Z,36.00
2022-12-03T14:47:28.738Z,37.40
2022-12-03T14:49:57.229Z,37.80
2022-12-03T14:52:25.267Z,37.70
2022-12-03T14:54:53.344Z,40.10
2022-12-03T14:57:21.269Z,40.20
2022-12-03T14:59:49.353Z,48.00
2022-12-03T15:02:17.732Z,44.40
2022-12-03T15:04:45.711Z,40.20
2022-12-03T15:07:13.613Z,39.60
2022-12-03T15:09:41.467Z,39.10
2022-12-03T15:12:09.407Z,41.80
2022-12-03T15:14:37.381Z,40.20
2022-12-03T15:17:05.542Z,42.50
2022-12-03T15:19:33.750Z,55.30
2022-12-03T15:22:01.747Z,46.50
2022-12-03T15:24:29.771Z,39.90
2022-12-03T15:26:57.893Z,40.70
2022-12-03T15:29:26.126Z,41.80
2022-12-03T15:31:54.387Z,41.30
2022-12-03T15:34:23.261Z,41.90
2022-12-03T15:36:51.499Z,42.20
2022-12-03T15:39:19.544Z,42.20
2022-12-03T15:41:48.495Z,40.50
2022-12-03T15:44:16.362Z,41.10
2022-12-03T15:46:44.589Z,39.10
2022-12-03T15:49:12.629Z,39.80
2022-12-03T15:51:40.600Z,40.40
2022-12-03T15:54:08.638Z,38.20
2022-12-03T15:56:37.697Z,36.30
2022-12-03T15:59:05.968Z,39.00
2022-12-03T16:01:34.054Z,38.40
2022-12-03T16:04:02.018Z,39.20
2022-12-03T16:06:30.021Z,38.60
2022-12-03T16:08:57.963Z,38.60
2022-12-03T16:11:26.135Z,70.00
2022-12-03T16:13:54.152Z,52.30
2022-12-03T16:16:22.155Z,58.30
2022-12-03T16:18:50.137Z,40.20
2022-12-03T16:21:23.378Z,48.70
2022-12-03T16:23:55.454Z,50.70
2022-12-03T16:26:23.294Z,49.90
2022-12-03T16:28:51.218Z,50.80
2022-12-03T16:31:19.532Z,50.60
2022-12-03T16:33:47.916Z,52.00
2022-12-03T16:36:16.464Z,47.80
2022-12-03T16:38:44.701Z,46.60
2022-12-03T16:41:12.661Z,53.10
2022-12-03T16:43:40.636Z,49.40
2022-12-03T16:46:15.089Z,48.00
2022-12-03T16:48:43.703Z,49.20
2022-12-03T16:51:11.943Z,51.90
2022-12-03T16:53:40.094Z,52.40
2022-12-03T16:56:08.701Z,56.20
2022-12-03T16:58:37.198Z,63.20
2022-12-03T17:01:06.190Z,67.60
2022-12-03T17:03:34.384Z,67.40
2022-12-03T17:06:03.396Z,67.50
2022-12-03T17:08:31.820Z,63.00
2022-12-03T17:10:59.813Z,64.80
2022-12-03T17:13:27.833Z,68.90
2022-12-03T17:15:55.749Z,70.80
2022-12-03T17:18:24.039Z,75.70
2022-12-03T17:20:52.601Z,80.20
2022-12-03T17:23:20.717Z,85.20
2022-12-03T17:25:48.732Z,80.10
2022-12-03T17:28:16.929Z,81.10
2022-12-03T17:30:45.704Z,85.40
2022-12-03T17:33:13.675Z,82.70
2022-12-03T17:35:42.304Z,83.00
2022-12-03T17:38:11.177Z,89.40
2022-12-03T17:40:39.285Z,94.60
2022-12-03T17:43:07.116Z,93.90
2022-12-03T17:45:36.803Z,95.30
2022-12-03T17:48:05.648Z,105.20
2022-12-03T17:50:34.489Z,105.50
2022-12-03T17:53:05.347Z,96.70
2022-12-03T17:55:40.997Z,95.30
2022-12-03T17:58:10.609Z,80.10
2022-12-03T18:00:39.025Z,87.30
2022-12-03T18:03:06.875Z,86.70
2022-12-03T18:05:34.812Z,84.00
2022-12-03T18:08:03.459Z,82.10
2022-12-03T18:10:31.485Z,81.10
2022-12-03T18:13:02.025Z,80.10
2022-12-03T18:15:31.396Z,74.80
2022-12-03T18:17:59.210Z,65.90
2022-12-03T18:20:27.634Z,53.30
2022-12-03T18:22:55.746Z,54.80
2022-12-03T18:25:23.631Z,47.90
2022-12-03T18:27:51.617Z,46.40
2022-12-03T18:30:19.546Z,48.00
2022-12-03T18:32:47.907Z,41.70
2022-12-03T18:35:15.669Z,38.40
2022-12-03T18:37:44.006Z,39.20
2022-12-03T18:40:20.173Z,37.60
2022-12-03T18:42:48.695Z,31.90
2022-12-03T18:45:16.807Z,31.50
2022-12-03T18:47:45.330Z,34.90
2022-12-03T18:50:13.707Z,34.20
2022-12-03T18:52:41.622Z,37.60
2022-12-03T18:55:18.094Z,39.20
2022-12-03T18:57:46.045Z,38.10
2022-12-03T19:00:14.849Z,38.70
2022-12-03T19:03:02.607Z,34.10
2022-12-03T19:05:34.238Z,33.70
2022-12-03T19:08:03.350Z,35.10
2022-12-03T19:10:31.461Z,34.50
2022-12-03T19:12:59.471Z,35.50
2022-12-03T19:15:27.360Z,35.20
2022-12-03T19:17:55.258Z,36.70
2022-12-03T19:20:23.268Z,33.70
2022-12-03T19:22:51.797Z,34.10
2022-12-03T19:25:19.699Z,30.60
2022-12-03T19:27:50.052Z,31.30
2022-12-03T19:30:18.140Z,29.20
2022-12-03T19:32:46.014Z,33.10
2022-12-03T19:35:13.855Z,31.00
2022-12-03T19:37:41.966Z,32.30
2022-12-03T19:40:10.403Z,30.00
2022-12-03T19:42:39.124Z,31.00
2022-12-03T19:45:08.331Z,30.00
2022-12-03T19:47:37.088Z,30.30
2022-12-03T19:50:05.943Z,28.50
2022-12-03T19:52:36.291Z,28.00
2022-12-03T19:55:05.168Z,28.20
2022-12-03T19:57:33.086Z,29.00
2022-12-03T20:00:01.325Z,30.20
2022-12-03T20:02:29.313Z,28.10
2022-12-03T20:04:57.422Z,29.40
2022-12-03T20:07:25.312Z,29.00
2022-12-03T20:09:53.606Z,26.90
2022-12-03T20:12:21.789Z,27.90
2022-12-03T20:14:50.090Z,31.10
2022-12-03T20:17:17.954Z,30.30
2022-12-03T20:19:46.083Z,30.30
2022-12-03T20:22:13.872Z,28.70
2022-12-03T20:24:41.819Z,29.20
2022-12-03T20:27:09.689Z,27.60
2022-12-03T20:29:37.900Z,28.90
2022-12-03T20:32:07.310Z,29.80
2022-12-03T20:34:36.014Z,31.10
2022-12-03T20:37:04.151Z,30.60
2022-12-03T20:39:32.217Z,30.60
2022-12-03T20:42:00.026Z,30.80
2022-12-03T20:44:27.898Z,31.00
2022-12-03T20:46:55.873Z,31.60
2022-12-03T20:49:23.921Z,31.90
2022-12-03T20:51:52.165Z,34.10
2022-12-03T20:54:20.136Z,33.60
2022-12-03T20:56:48.491Z,33.90
2022-12-03T20:59:17.557Z,34.00
2022-12-03T21:01:45.835Z,34.20
2022-12-03T21:04:13.831Z,35.40
2022-12-03T21:06:42.426Z,33.50
2022-12-03T21:09:11.876Z,32.50
2022-12-03T21:11:42.271Z,33.20
2022-12-03T21:14:11.629Z,32.80
2022-12-03T21:17:06.544Z,33.20
2022-12-03T21:19:28.258Z,35.90
2022-12-03T21:21:56.238Z,33.70
2022-12-03T21:24:24.103Z,36.20
2022-12-03T21:26:52.622Z,36.90
2022-12-03T21:29:20.587Z,38.80
2022-12-03T21:31:48.437Z,39.60
2022-12-03T21:34:16.420Z,37.00
2022-12-03T21:36:44.321Z,35.80
2022-12-03T21:39:12.328Z,37.20
2022-12-03T21:41:40.517Z,41.50
2022-12-03T21:44:28.387Z,41.90
2022-12-03T21:47:12.529Z,40.70
2022-12-03T21:49:42.444Z,40.60
2022-12-03T21:52:10.998Z,41.20
2022-12-03T21:54:38.960Z,42.40
2022-12-03T21:57:07.005Z,39.40
2022-12-03T21:59:34.934Z,37.70
2022-12-03T22:02:03.040Z,40.40
2022-12-03T22:04:31.213Z,38.90
2022-12-03T22:06:59.265Z,39.50
2022-12-03T22:09:27.268Z,37.80
2022-12-03T22:11:56.989Z,40.00
2022-12-03T22:14:25.507Z,40.70
2022-12-03T22:16:53.735Z,39.10
2022-12-03T22:19:23.407Z,39.30
2022-12-03T22:21:51.743Z,40.40
2022-12-03T22:24:19.942Z,40.10
2022-12-03T22:26:47.922Z,38.40
2022-12-03T22:29:16.204Z,36.20
2022-12-03T22:31:44.557Z,36.10
2022-12-03T22:34:13.067Z,36.30
2022-12-03T22:36:41.187Z,35.40
2022-12-03T22:39:09.166Z,35.40
2022-12-03T22:41:37.394Z,34.30
2022-12-03T22:44:05.386Z,32.00
2022-12-03T22:46:33.485Z,34.10
2022-12-03T22:49:06.824Z,33.90
2022-12-03T22:51:36.152Z,31.30
2022-12-03T22:54:04.643Z,31.80
2022-12-03T22:56:32.858Z,31.10
2022-12-03T22:59:00.916Z,30.50
2022-12-03T23:01:35.199Z,28.50
2022-12-03T23:04:03.877Z,26.60
2022-12-03T23:06:34.404Z,24.00
2022-12-03T23:09:04.551Z,23.30
2022-12-03T23:11:32.637Z,24.20
2022-12-03T23:14:01.412Z,25.10
2022-12-03T23:16:32.680Z,26.50
2022-12-03T23:19:02.267Z,27.30
2022-12-03T23:21:33.268Z,27.40
2022-12-03T23:24:03.683Z,28.10
2022-12-03T23:26:34.675Z,26.90
2022-12-03T23:29:03.459Z,26.50
2022-12-03T23:31:33.582Z,28.20
2022-12-03T23:34:02.871Z,28.10
2022-12-03T23:36:32.724Z,26.90
2022-12-03T23:39:00.832Z,26.00
2022-12-03T23:41:28.846Z,26.00
2022-12-03T23:43:57.584Z,24.50
2022-12-03T23:46:27.693Z,24.90
2022-12-03T23:48:58.753Z,23.20
2022-12-03T23:51:27.279Z,25.20
2022-12-03T23:53:56.510Z,23.90
2022-12-03T23:56:27.419Z,25.00
2022-12-03T23:58:56.635Z,27.50
